Latest Weather Observations for Warburto Point

IDS60801

Issued at 5:31 pm CST Thursday 29 September 2016 (issued every 30 minutes, with the page automatically refreshed every 10 minutes)

About weather observations | Map of weather stations | Latest weather observations for SA | Other Formats
Station Details ID: 022053 Name: WARBURTO POINT Lat: -34.00 Lon: 137.53 Height: 1.0 m
Data from the previous 72 hours. | See also: Recent months for locations in South Australia
Date/Time
CST
Temp
°C
App
Temp
°C
Dew
Point
°C
Rel
Hum
%
Delta-T
°C
Wind Press
QNH
hPa
Press
MSL
hPa
Rain since
9am
mm
Dir  Spd
km/h
Gust
km/h
Spd
kts
Gust
kts
29/05:30pm - - - - - WSW 70 91 38 49 - - -
29/05:00pm - - - - - WSW 72 95 39 51 - - -
29/04:30pm - - - - - WSW 74 95 40 51 - - -
29/04:00pm - - - - - WSW 72 91 39 49 - - -
29/03:30pm - - - - - WSW 72 95 39 51 - - -
29/03:01pm - - - - - WSW 70 89 38 48 - - -
29/03:00pm - - - - - WSW 70 87 38 47 - - -
29/02:31pm - - - - - WSW 69 87 37 47 - - -
29/02:30pm - - - - - WSW 67 83 36 45 - - -
29/02:00pm - - - - - W 72 96 39 52 - - -
29/01:30pm - - - - - W 70 89 38 48 - - -
29/01:00pm - - - - - W 69 98 37 53 - - -
29/12:30pm - - - - - W 69 87 37 47 - - -
29/12:00pm - - - - - WSW 70 91 38 49 - - -
29/11:53am - - - - - WSW 74 93 40 50 - - -
29/11:00am - - - - - W 65 85 35 46 - - -
29/10:45am - - - - - W 61 85 33 46 - - -
29/10:30am - - - - - W 54 69 29 37 - - -
29/10:23am - - - - - W 57 76 31 41 - - -
29/10:00am - - - - - W 61 74 33 40 - - -
29/09:42am - - - - - W 56 74 30 40 - - -
29/09:30am - - - - - W 61 76 33 41 - - -
29/09:15am - - - - - W 63 82 34 44 - - -
29/09:00am - - - - - W 67 82 36 44 - - -
29/08:30am - - - - - W 69 91 37 49 - - -
29/08:00am - - - - - W 63 83 34 45 - - -
29/07:30am - - - - - W 78 100 42 54 - - -
29/07:00am - - - - - W 82 102 44 55 - - -
29/06:30am - - - - - W 80 106 43 57 - - -
29/06:24am - - - - - W 82 106 44 57 - - -
29/06:00am - - - - - WNW 69 87 37 47 - - -
29/05:30am - - - - - WNW 70 96 38 52 - - -
29/05:00am - - - - - NW 72 93 39 50 - - -
29/04:30am - - - - - NW 76 96 41 52 - - -
29/04:00am - - - - - NW 72 91 39 49 - - -
29/03:30am - - - - - NW 74 96 40 52 - - -
29/03:00am - - - - - NW 70 93 38 50 - - -
29/02:30am - - - - - NW 72 91 39 49 - - -
29/02:05am - - - - - NW 70 93 38 50 - - -
29/02:00am - - - - - NW 70 85 38 46 - - -
29/01:30am - - - - - NW 61 80 33 43 - - -
29/01:00am - - - - - NW 61 76 33 41 - - -
29/12:35am - - - - - NW 61 80 33 43 - - -
29/12:30am - - - - - NW 65 82 35 44 - - -
29/12:21am - - - - - NW 63 82 34 44 - - -
29/12:00am - - - - - NW 65 80 35 43 - - -
 
Date/Time
CST
Temp
°C
App
Temp
°C
Dew
Point
°C
Rel
Hum
%
Delta-T
°C
Wind Press
QNH
hPa
Press
MSL
hPa
Rain since
9am
mm
Dir  Spd
km/h
Gust
km/h
Spd
kts
Gust
kts
28/11:30pm - - - - - NW 63 83 34 45 - - -
28/11:00pm - - - - - WNW 61 82 33 44 - - -
28/10:30pm - - - - - NW 57 78 31 42 - - -
28/10:00pm - - - - - NW 57 76 31 41 - - -
28/09:30pm - - - - - WNW 59 78 32 42 - - -
28/09:23pm - - - - - WNW 54 78 29 42 - - -
28/09:22pm - - - - - WNW 54 78 29 42 - - -
28/09:05pm - - - - - WNW 69 87 37 47 - - -
28/09:00pm - - - - - WNW 63 87 34 47 - - -
28/08:57pm - - - - - WNW 59 83 32 45 - - -
28/08:30pm - - - - - WNW 50 69 27 37 - - -
28/08:26pm - - - - - WNW 50 69 27 37 - - -
28/08:00pm - - - - - WNW 44 57 24 31 - - -
28/07:30pm - - - - - W 48 63 26 34 - - -
28/07:01pm - - - - - W 57 76 31 41 - - -
28/07:00pm - - - - - W 59 76 32 41 - - -
28/06:32pm - - - - - W 59 78 32 42 - - -
28/06:30pm - - - - - W 61 78 33 42 - - -
28/06:01pm - - - - - W 65 83 35 45 - - -
28/06:00pm - - - - - W 67 83 36 45 - - -
28/05:30pm - - - - - W 57 76 31 41 - - -
28/05:23pm - - - - - W 50 76 27 41 - - -
28/05:00pm - - - - - W 48 59 26 32 - - -
28/04:30pm - - - - - W 61 80 33 43 - - -
28/04:27pm - - - - - W 61 80 33 43 - - -
28/04:18pm - - - - - W 43 78 23 42 - - -
28/04:00pm - - - - - WSW 43 67 23 36 - - -
28/03:47pm - - - - - WSW 41 59 22 32 - - -
28/03:30pm - - - - - W 44 59 24 32 - - -
28/03:01pm - - - - - WNW 50 78 27 42 - - -
28/03:00pm - - - - - WNW 50 78 27 42 - - -
28/02:55pm - - - - - NNW 44 78 24 42 - - -
28/02:54pm - - - - - NNW 41 59 22 32 - - -
28/02:45pm - - - - - NNE 39 54 21 29 - - -
28/02:36pm - - - - - NNE 35 54 19 29 - - -
28/02:30pm - - - - - NE 35 46 19 25 - - -
28/02:00pm - - - - - NE 39 54 21 29 - - -
28/01:38pm - - - - - NE 39 57 21 31 - - -
28/01:30pm - - - - - NE 39 50 21 27 - - -
28/01:00pm - - - - - ENE 39 46 21 25 - - -
28/12:30pm - - - - - ENE 32 41 17 22 - - -
28/12:00pm - - - - - ENE 28 35 15 19 - - -
28/11:30am - - - - - NE 17 24 9 13 - - -
28/11:00am - - - - - NNE 26 32 14 17 - - -
28/10:30am - - - - - NE 20 28 11 15 - - -
28/10:00am - - - - - NNE 28 37 15 20 - - -
28/09:30am - - - - - NE 24 32 13 17 - - -
28/09:00am - - - - - NE 28 33 15 18 - - -
28/08:30am - - - - - ENE 30 37 16 20 - - -
28/08:00am - - - - - NE 28 33 15 18 - - -
28/07:30am - - - - - ENE 26 32 14 17 - - -
28/07:00am - - - - - NE 20 26 11 14 - - -
28/06:30am - - - - - NE 20 26 11 14 - - -
28/06:00am - - - - - ENE 22 28 12 15 - - -
28/05:30am - - - - - ENE 17 20 9 11 - - -
28/05:00am - - - - - ENE 19 20 10 11 - - -
28/04:30am - - - - - NE 17 20 9 11 - - -
28/04:00am - - - - - ENE 17 20 9 11 - - -
28/03:30am - - - - - ENE 19 20 10 11 - - -
28/03:00am - - - - - NE 17 20 9 11 - - -
28/02:30am - - - - - NE 17 20 9 11 - - -
28/02:00am - - - - - NE 19 20 10 11 - - -
28/01:30am - - - - - NE 19 20 10 11 - - -
28/01:00am - - - - - NE 17 19 9 10 - - -
28/12:30am - - - - - ENE 13 15 7 8 - - -
28/12:00am - - - - - ENE 13 15 7 8 - - -
 
Date/Time
CST
Temp
°C
App
Temp
°C
Dew
Point
°C
Rel
Hum
%
Delta-T
°C
Wind Press
QNH
hPa
Press
MSL
hPa
Rain since
9am
mm
Dir  Spd
km/h
Gust
km/h
Spd
kts
Gust
kts
27/11:30pm - - - - - ENE 13 15 7 8 - - -
27/11:00pm - - - - - ENE 15 17 8 9 - - -
27/10:30pm - - - - - ENE 13 17 7 9 - - -
27/10:00pm - - - - - E 19 22 10 12 - - -
27/09:30pm - - - - - ENE 17 20 9 11 - - -
27/09:00pm - - - - - E 19 20 10 11 - - -
27/08:30pm - - - - - ENE 19 19 10 10 - - -
27/08:00pm - - - - - ENE 15 15 8 8 - - -
27/07:30pm - - - - - ENE 15 15 8 8 - - -
27/07:00pm - - - - - NE 13 15 7 8 - - -
27/06:30pm - - - - - NNE 19 24 10 13 - - -
27/06:00pm - - - - - NNE 20 26 11 14 - - -
27/05:30pm - - - - - N 19 24 10 13 - - -
27/05:00pm - - - - - N 17 22 9 12 - - -
27/04:30pm - - - - - N 17 22 9 12 - - -
27/04:00pm - - - - - N 17 22 9 12 - - -
27/03:30pm - - - - - N 15 19 8 10 - - -
27/03:00pm - - - - - NNE 11 15 6 8 - - -
27/02:30pm - - - - - NNW 9 13 5 7 - - -
27/02:00pm - - - - - NNW 11 13 6 7 - - -
27/01:30pm - - - - - WNW 13 15 7 8 - - -
27/01:00pm - - - - - W 15 22 8 12 - - -
27/12:30pm - - - - - WNW 13 19 7 10 - - -
27/12:00pm - - - - - NW 17 20 9 11 - - -
27/11:30am - - - - - NW 15 20 8 11 - - -
27/11:00am - - - - - NW 17 19 9 10 - - -
27/10:30am - - - - - NW 15 19 8 10 - - -
27/10:00am - - - - - NW 15 20 8 11 - - -
27/09:30am - - - - - WNW 15 19 8 10 - - -
27/09:00am - - - - - NW 17 22 9 12 - - -
27/08:30am - - - - - WNW 17 20 9 11 - - -
27/08:00am - - - - - WNW 17 22 9 12 - - -
27/07:30am - - - - - WNW 17 22 9 12 - - -
27/07:00am - - - - - WNW 15 19 8 10 - - -
27/06:30am - - - - - W 17 20 9 11 - - -
27/06:00am - - - - - W 15 20 8 11 - - -
27/05:30am - - - - - W 17 24 9 13 - - -
27/05:00am - - - - - W 19 24 10 13 - - -
27/04:30am - - - - - W 17 20 9 11 - - -
27/04:00am - - - - - WSW 19 26 10 14 - - -
27/03:30am - - - - - WSW 17 26 9 14 - - -
27/03:00am - - - - - WSW 17 22 9 12 - - -
27/02:30am - - - - - WSW 20 26 11 14 - - -
27/02:00am - - - - - WSW 20 30 11 16 - - -
27/01:30am - - - - - WSW 19 26 10 14 - - -
27/01:00am - - - - - WSW 22 28 12 15 - - -
27/12:30am - - - - - WSW 20 30 11 16 - - -
27/12:00am - - - - - SW 24 32 13 17 - - -
 
Date/Time
CST
Temp
°C
App
Temp
°C
Dew
Point
°C
Rel
Hum
%
Delta-T
°C
Wind Press
QNH
hPa
Press
MSL
hPa
Rain since
9am
mm
Dir  Spd
km/h
Gust
km/h
Spd
kts
Gust
kts
26/11:30pm - - - - - WSW 26 32 14 17 - - -
26/11:00pm - - - - - WSW 24 32 13 17 - - -
26/10:30pm - - - - - SW 26 35 14 19 - - -
26/10:00pm - - - - - SW 26 33 14 18 - - -
26/09:30pm - - - - - SW 26 33 14 18 - - -
26/09:00pm - - - - - SW 28 33 15 18 - - -
26/08:30pm - - - - - SW 26 33 14 18 - - -
26/08:00pm - - - - - SW 30 35 16 19 - - -
26/07:30pm - - - - - SW 28 39 15 21 - - -
26/07:00pm - - - - - SSW 30 37 16 20 - - -
26/06:30pm - - - - - SW 30 37 16 20 - - -
26/06:00pm - - - - - SW 32 41 17 22 - - -

Other Formats:

Comma delimited format used in spreadsheet applications
http://www.bom.gov.au/fwo/IDS60801/IDS60801.94666.axf

JavaScript Object Notation format (JSON) in row-major order
http://www.bom.gov.au/fwo/IDS60801/IDS60801.94666.json